sensor_id;sensor_type;location;lat;lon;timestamp;P1;durP1;ratioP1;P2;durP2;ratioP2
46889;SDS011;32625;51.080;16.970;2024-02-26T00:00:13;59.70;;;31.55;;
46889;SDS011;32625;51.080;16.970;2024-02-26T00:02:41;56.80;;;32.42;;
46889;SDS011;32625;51.080;16.970;2024-02-26T00:05:08;57.67;;;32.17;;
46889;SDS011;32625;51.080;16.970;2024-02-26T00:07:35;55.78;;;32.17;;
46889;SDS011;32625;51.080;16.970;2024-02-26T00:10:02;54.58;;;30.80;;
46889;SDS011;32625;51.080;16.970;2024-02-26T00:12:30;58.17;;;31.50;;
46889;SDS011;32625;51.080;16.970;2024-02-26T00:14:57;56.20;;;31.55;;
46889;SDS011;32625;51.080;16.970;2024-02-26T00:17:24;53.22;;;30.80;;
46889;SDS011;32625;51.080;16.970;2024-02-26T00:19:52;55.78;;;30.85;;
46889;SDS011;32625;51.080;16.970;2024-02-26T00:22:19;50.65;;;30.35;;
46889;SDS011;32625;51.080;16.970;2024-02-26T00:24:48;51.45;;;28.83;;
46889;SDS011;32625;51.080;16.970;2024-02-26T00:27:15;55.60;;;30.45;;
46889;SDS011;32625;51.080;16.970;2024-02-26T00:29:42;48.13;;;27.17;;
46889;SDS011;32625;51.080;16.970;2024-02-26T00:32:10;49.58;;;28.02;;
46889;SDS011;32625;51.080;16.970;2024-02-26T00:34:37;44.45;;;27.73;;
46889;SDS011;32625;51.080;16.970;2024-02-26T00:37:04;48.03;;;28.88;;
46889;SDS011;32625;51.080;16.970;2024-02-26T00:39:31;50.38;;;27.67;;
46889;SDS011;32625;51.080;16.970;2024-02-26T00:41:58;47.38;;;27.63;;
46889;SDS011;32625;51.080;16.970;2024-02-26T00:44:25;48.58;;;27.70;;
46889;SDS011;32625;51.080;16.970;2024-02-26T00:46:52;49.90;;;29.20;;
46889;SDS011;32625;51.080;16.970;2024-02-26T00:49:19;45.75;;;28.02;;
46889;SDS011;32625;51.080;16.970;2024-02-26T00:51:46;50.45;;;27.35;;
46889;SDS011;32625;51.080;16.970;2024-02-26T00:54:13;47.20;;;27.23;;
46889;SDS011;32625;51.080;16.970;2024-02-26T00:56:40;48.25;;;27.77;;
46889;SDS011;32625;51.080;16.970;2024-02-26T00:59:07;51.03;;;26.83;;
46889;SDS011;32625;51.080;16.970;2024-02-26T01:01:34;50.47;;;27.00;;
46889;SDS011;32625;51.080;16.970;2024-02-26T01:04:01;43.80;;;26.52;;
46889;SDS011;32625;51.080;16.970;2024-02-26T01:06:29;49.15;;;26.85;;
46889;SDS011;32625;51.080;16.970;2024-02-26T01:08:57;45.00;;;25.00;;
46889;SDS011;32625;51.080;16.970;2024-02-26T01:11:24;44.28;;;25.08;;
46889;SDS011;32625;51.080;16.970;2024-02-26T01:13:51;51.47;;;28.00;;
46889;SDS011;32625;51.080;16.970;2024-02-26T01:16:23;54.42;;;27.58;;
46889;SDS011;32625;51.080;16.970;2024-02-26T01:18:50;47.80;;;26.48;;
46889;SDS011;32625;51.080;16.970;2024-02-26T01:21:17;48.67;;;26.55;;
46889;SDS011;32625;51.080;16.970;2024-02-26T01:23:45;48.83;;;27.70;;
46889;SDS011;32625;51.080;16.970;2024-02-26T01:26:12;43.90;;;27.15;;
46889;SDS011;32625;51.080;16.970;2024-02-26T01:28:38;43.67;;;25.65;;
46889;SDS011;32625;51.080;16.970;2024-02-26T01:31:06;44.95;;;26.17;;
46889;SDS011;32625;51.080;16.970;2024-02-26T01:33:34;46.47;;;27.35;;
46889;SDS011;32625;51.080;16.970;2024-02-26T01:36:02;47.58;;;26.05;;
46889;SDS011;32625;51.080;16.970;2024-02-26T01:38:29;49.92;;;25.92;;
46889;SDS011;32625;51.080;16.970;2024-02-26T01:40:57;47.20;;;24.77;;
46889;SDS011;32625;51.080;16.970;2024-02-26T01:43:23;46.85;;;27.15;;
46889;SDS011;32625;51.080;16.970;2024-02-26T01:45:51;42.70;;;26.73;;
46889;SDS011;32625;51.080;16.970;2024-02-26T01:48:18;50.20;;;26.58;;
46889;SDS011;32625;51.080;16.970;2024-02-26T01:50:45;41.47;;;25.20;;
46889;SDS011;32625;51.080;16.970;2024-02-26T01:53:12;48.25;;;26.73;;
46889;SDS011;32625;51.080;16.970;2024-02-26T01:55:39;42.42;;;24.92;;
46889;SDS011;32625;51.080;16.970;2024-02-26T01:58:07;44.42;;;25.27;;
46889;SDS011;32625;51.080;16.970;2024-02-26T02:00:35;45.30;;;25.15;;
46889;SDS011;32625;51.080;16.970;2024-02-26T02:03:02;44.47;;;25.80;;
46889;SDS011;32625;51.080;16.970;2024-02-26T02:05:30;42.20;;;25.23;;
46889;SDS011;32625;51.080;16.970;2024-02-26T02:07:59;44.80;;;25.27;;
46889;SDS011;32625;51.080;16.970;2024-02-26T02:10:26;39.67;;;24.80;;
46889;SDS011;32625;51.080;16.970;2024-02-26T02:12:54;43.35;;;26.23;;
46889;SDS011;32625;51.080;16.970;2024-02-26T02:15:21;40.28;;;24.63;;
46889;SDS011;32625;51.080;16.970;2024-02-26T02:17:48;46.70;;;25.40;;
46889;SDS011;32625;51.080;16.970;2024-02-26T02:20:16;39.80;;;23.30;;
46889;SDS011;32625;51.080;16.970;2024-02-26T02:22:47;42.40;;;24.27;;
46889;SDS011;32625;51.080;16.970;2024-02-26T02:25:14;42.15;;;23.83;;
46889;SDS011;32625;51.080;16.970;2024-02-26T02:27:41;39.13;;;23.60;;
46889;SDS011;32625;51.080;16.970;2024-02-26T02:30:09;40.30;;;23.77;;
46889;SDS011;32625;51.080;16.970;2024-02-26T02:32:37;37.90;;;22.80;;
46889;SDS011;32625;51.080;16.970;2024-02-26T02:35:08;38.28;;;23.10;;
46889;SDS011;32625;51.080;16.970;2024-02-26T02:37:35;37.35;;;21.73;;
46889;SDS011;32625;51.080;16.970;2024-02-26T02:40:03;42.03;;;21.95;;
46889;SDS011;32625;51.080;16.970;2024-02-26T02:42:31;35.75;;;21.15;;
46889;SDS011;32625;51.080;16.970;2024-02-26T02:44:58;34.80;;;21.75;;
46889;SDS011;32625;51.080;16.970;2024-02-26T02:47:25;38.67;;;23.10;;
46889;SDS011;32625;51.080;16.970;2024-02-26T02:49:53;39.70;;;21.88;;
46889;SDS011;32625;51.080;16.970;2024-02-26T02:52:19;38.42;;;21.52;;
46889;SDS011;32625;51.080;16.970;2024-02-26T02:54:46;41.22;;;21.08;;
46889;SDS011;32625;51.080;16.970;2024-02-26T02:57:13;35.80;;;21.63;;
46889;SDS011;32625;51.080;16.970;2024-02-26T02:59:41;35.53;;;20.95;;
46889;SDS011;32625;51.080;16.970;2024-02-26T03:02:08;44.92;;;22.70;;
46889;SDS011;32625;51.080;16.970;2024-02-26T03:04:35;33.72;;;19.30;;
46889;SDS011;32625;51.080;16.970;2024-02-26T03:07:02;35.58;;;20.88;;
46889;SDS011;32625;51.080;16.970;2024-02-26T03:09:29;35.42;;;20.67;;
46889;SDS011;32625;51.080;16.970;2024-02-26T03:11:56;44.05;;;22.25;;
46889;SDS011;32625;51.080;16.970;2024-02-26T03:14:23;37.95;;;21.35;;
46889;SDS011;32625;51.080;16.970;2024-02-26T03:16:54;37.25;;;21.00;;
46889;SDS011;32625;51.080;16.970;2024-02-26T03:19:21;40.60;;;22.35;;
46889;SDS011;32625;51.080;16.970;2024-02-26T03:21:50;36.85;;;21.10;;
46889;SDS011;32625;51.080;16.970;2024-02-26T03:24:17;37.15;;;20.88;;
46889;SDS011;32625;51.080;16.970;2024-02-26T03:26:44;34.38;;;20.45;;
46889;SDS011;32625;51.080;16.970;2024-02-26T03:29:11;37.97;;;20.90;;
46889;SDS011;32625;51.080;16.970;2024-02-26T03:31:38;31.83;;;19.75;;
46889;SDS011;32625;51.080;16.970;2024-02-26T03:34:05;35.42;;;20.73;;
46889;SDS011;32625;51.080;16.970;2024-02-26T03:36:33;35.25;;;19.73;;
46889;SDS011;32625;51.080;16.970;2024-02-26T03:39:00;31.17;;;19.83;;
46889;SDS011;32625;51.080;16.970;2024-02-26T03:41:28;33.22;;;19.77;;
46889;SDS011;32625;51.080;16.970;2024-02-26T03:43:55;30.50;;;19.80;;
46889;SDS011;32625;51.080;16.970;2024-02-26T03:46:22;36.90;;;21.33;;
46889;SDS011;32625;51.080;16.970;2024-02-26T03:48:49;33.65;;;20.08;;
46889;SDS011;32625;51.080;16.970;2024-02-26T03:51:17;34.90;;;20.33;;
46889;SDS011;32625;51.080;16.970;2024-02-26T03:53:44;34.58;;;20.27;;
46889;SDS011;32625;51.080;16.970;2024-02-26T03:56:11;31.80;;;20.17;;
46889;SDS011;32625;51.080;16.970;2024-02-26T03:58:39;34.75;;;20.52;;
46889;SDS011;32625;51.080;16.970;2024-02-26T04:01:07;32.50;;;19.55;;
46889;SDS011;32625;51.080;16.970;2024-02-26T04:03:35;33.70;;;19.85;;
46889;SDS011;32625;51.080;16.970;2024-02-26T04:06:02;31.35;;;20.27;;
46889;SDS011;32625;51.080;16.970;2024-02-26T04:08:29;37.28;;;21.42;;
46889;SDS011;32625;51.080;16.970;2024-02-26T04:10:57;31.55;;;19.35;;
46889;SDS011;32625;51.080;16.970;2024-02-26T04:13:24;34.90;;;19.65;;
46889;SDS011;32625;51.080;16.970;2024-02-26T04:15:51;33.05;;;20.13;;
46889;SDS011;32625;51.080;16.970;2024-02-26T04:18:18;31.30;;;18.80;;
46889;SDS011;32625;51.080;16.970;2024-02-26T04:20:45;32.92;;;21.42;;
46889;SDS011;32625;51.080;16.970;2024-02-26T04:23:13;33.03;;;20.25;;
46889;SDS011;32625;51.080;16.970;2024-02-26T04:25:40;32.42;;;20.80;;
46889;SDS011;32625;51.080;16.970;2024-02-26T04:28:07;32.83;;;20.17;;
46889;SDS011;32625;51.080;16.970;2024-02-26T04:30:35;29.33;;;18.90;;
46889;SDS011;32625;51.080;16.970;2024-02-26T04:33:02;35.45;;;20.98;;
46889;SDS011;32625;51.080;16.970;2024-02-26T04:35:29;29.85;;;18.92;;
46889;SDS011;32625;51.080;16.970;2024-02-26T04:37:56;33.00;;;19.08;;
46889;SDS011;32625;51.080;16.970;2024-02-26T04:40:24;31.65;;;19.80;;
46889;SDS011;32625;51.080;16.970;2024-02-26T04:42:51;35.72;;;20.52;;
46889;SDS011;32625;51.080;16.970;2024-02-26T04:45:18;33.08;;;18.70;;
46889;SDS011;32625;51.080;16.970;2024-02-26T04:47:45;31.75;;;20.55;;
46889;SDS011;32625;51.080;16.970;2024-02-26T04:50:13;35.85;;;21.50;;
46889;SDS011;32625;51.080;16.970;2024-02-26T04:52:40;37.38;;;21.88;;
46889;SDS011;32625;51.080;16.970;2024-02-26T04:55:07;37.58;;;21.08;;
46889;SDS011;32625;51.080;16.970;2024-02-26T04:57:34;26.92;;;18.70;;
46889;SDS011;32625;51.080;16.970;2024-02-26T05:00:01;31.83;;;20.38;;
46889;SDS011;32625;51.080;16.970;2024-02-26T05:02:31;35.65;;;20.15;;
46889;SDS011;32625;51.080;16.970;2024-02-26T05:05:00;36.22;;;20.60;;
46889;SDS011;32625;51.080;16.970;2024-02-26T05:07:27;36.63;;;20.27;;
46889;SDS011;32625;51.080;16.970;2024-02-26T05:09:54;31.80;;;20.10;;
46889;SDS011;32625;51.080;16.970;2024-02-26T05:12:22;33.72;;;20.70;;
46889;SDS011;32625;51.080;16.970;2024-02-26T05:14:49;35.30;;;21.65;;
46889;SDS011;32625;51.080;16.970;2024-02-26T05:17:16;31.13;;;19.90;;
46889;SDS011;32625;51.080;16.970;2024-02-26T05:19:43;33.53;;;19.73;;
46889;SDS011;32625;51.080;16.970;2024-02-26T05:22:10;31.30;;;20.60;;
46889;SDS011;32625;51.080;16.970;2024-02-26T05:24:37;34.30;;;20.17;;
46889;SDS011;32625;51.080;16.970;2024-02-26T05:27:05;33.15;;;20.00;;
46889;SDS011;32625;51.080;16.970;2024-02-26T05:29:33;31.52;;;19.70;;
46889;SDS011;32625;51.080;16.970;2024-02-26T05:32:00;34.55;;;21.17;;
46889;SDS011;32625;51.080;16.970;2024-02-26T05:34:27;36.30;;;21.40;;
46889;SDS011;32625;51.080;16.970;2024-02-26T05:36:56;34.33;;;21.75;;
46889;SDS011;32625;51.080;16.970;2024-02-26T05:39:23;33.10;;;20.08;;
46889;SDS011;32625;51.080;16.970;2024-02-26T05:41:50;38.40;;;21.63;;
46889;SDS011;32625;51.080;16.970;2024-02-26T05:44:17;34.78;;;21.38;;
46889;SDS011;32625;51.080;16.970;2024-02-26T05:46:44;36.53;;;22.70;;
46889;SDS011;32625;51.080;16.970;2024-02-26T05:49:11;36.30;;;23.15;;
46889;SDS011;32625;51.080;16.970;2024-02-26T05:51:38;36.17;;;21.55;;
46889;SDS011;32625;51.080;16.970;2024-02-26T05:54:05;35.08;;;22.75;;
46889;SDS011;32625;51.080;16.970;2024-02-26T05:56:32;38.30;;;23.08;;
46889;SDS011;32625;51.080;16.970;2024-02-26T05:58:59;37.28;;;23.77;;
46889;SDS011;32625;51.080;16.970;2024-02-26T06:01:26;39.35;;;23.45;;
46889;SDS011;32625;51.080;16.970;2024-02-26T06:03:53;37.75;;;23.42;;
46889;SDS011;32625;51.080;16.970;2024-02-26T06:06:20;39.92;;;24.80;;
46889;SDS011;32625;51.080;16.970;2024-02-26T06:08:50;37.90;;;24.90;;
46889;SDS011;32625;51.080;16.970;2024-02-26T06:11:17;38.65;;;24.65;;
46889;SDS011;32625;51.080;16.970;2024-02-26T06:13:44;43.97;;;25.13;;
46889;SDS011;32625;51.080;16.970;2024-02-26T06:16:11;40.70;;;25.27;;
46889;SDS011;32625;51.080;16.970;2024-02-26T06:18:38;36.90;;;23.48;;
46889;SDS011;32625;51.080;16.970;2024-02-26T06:21:08;38.30;;;23.45;;
46889;SDS011;32625;51.080;16.970;2024-02-26T06:23:37;41.15;;;25.70;;
46889;SDS011;32625;51.080;16.970;2024-02-26T06:26:05;40.42;;;24.63;;
46889;SDS011;32625;51.080;16.970;2024-02-26T06:28:32;40.53;;;25.05;;
46889;SDS011;32625;51.080;16.970;2024-02-26T06:31:00;39.05;;;25.67;;
46889;SDS011;32625;51.080;16.970;2024-02-26T06:33:27;42.85;;;25.77;;
46889;SDS011;32625;51.080;16.970;2024-02-26T06:35:54;41.22;;;26.40;;
46889;SDS011;32625;51.080;16.970;2024-02-26T06:38:21;36.72;;;26.10;;
46889;SDS011;32625;51.080;16.970;2024-02-26T06:40:48;45.65;;;26.02;;
46889;SDS011;32625;51.080;16.970;2024-02-26T06:43:15;45.85;;;27.30;;
46889;SDS011;32625;51.080;16.970;2024-02-26T06:45:42;41.53;;;27.15;;
46889;SDS011;32625;51.080;16.970;2024-02-26T06:48:09;47.55;;;28.73;;
46889;SDS011;32625;51.080;16.970;2024-02-26T06:50:36;53.63;;;28.90;;
46889;SDS011;32625;51.080;16.970;2024-02-26T06:53:04;44.72;;;28.40;;
46889;SDS011;32625;51.080;16.970;2024-02-26T06:55:31;43.97;;;28.45;;
46889;SDS011;32625;51.080;16.970;2024-02-26T06:57:58;48.60;;;27.50;;
46889;SDS011;32625;51.080;16.970;2024-02-26T07:00:25;47.08;;;27.33;;
46889;SDS011;32625;51.080;16.970;2024-02-26T07:02:52;43.55;;;28.45;;
46889;SDS011;32625;51.080;16.970;2024-02-26T07:05:20;44.10;;;27.55;;
46889;SDS011;32625;51.080;16.970;2024-02-26T07:07:46;45.47;;;28.42;;
46889;SDS011;32625;51.080;16.970;2024-02-26T07:10:13;46.97;;;28.77;;
46889;SDS011;32625;51.080;16.970;2024-02-26T07:12:41;47.33;;;27.98;;
46889;SDS011;32625;51.080;16.970;2024-02-26T07:15:08;50.60;;;29.52;;
46889;SDS011;32625;51.080;16.970;2024-02-26T07:17:36;43.92;;;27.88;;
46889;SDS011;32625;51.080;16.970;2024-02-26T07:20:03;43.97;;;29.00;;
46889;SDS011;32625;51.080;16.970;2024-02-26T07:22:35;47.65;;;30.45;;
46889;SDS011;32625;51.080;16.970;2024-02-26T07:25:02;44.67;;;29.33;;
46889;SDS011;32625;51.080;16.970;2024-02-26T07:27:30;48.65;;;28.75;;
46889;SDS011;32625;51.080;16.970;2024-02-26T07:29:57;40.00;;;28.80;;
46889;SDS011;32625;51.080;16.970;2024-02-26T07:32:24;50.05;;;31.30;;
46889;SDS011;32625;51.080;16.970;2024-02-26T07:34:51;41.55;;;30.05;;
46889;SDS011;32625;51.080;16.970;2024-02-26T07:37:18;47.33;;;30.75;;
46889;SDS011;32625;51.080;16.970;2024-02-26T07:39:45;43.63;;;30.13;;
46889;SDS011;32625;51.080;16.970;2024-02-26T07:42:12;49.83;;;30.00;;
46889;SDS011;32625;51.080;16.970;2024-02-26T07:44:39;41.33;;;28.77;;
46889;SDS011;32625;51.080;16.970;2024-02-26T07:47:09;45.78;;;30.25;;
46889;SDS011;32625;51.080;16.970;2024-02-26T07:49:36;44.45;;;30.50;;
46889;SDS011;32625;51.080;16.970;2024-02-26T07:52:05;46.47;;;30.48;;
46889;SDS011;32625;51.080;16.970;2024-02-26T07:54:32;39.08;;;27.67;;
46889;SDS011;32625;51.080;16.970;2024-02-26T07:56:59;39.70;;;28.38;;
46889;SDS011;32625;51.080;16.970;2024-02-26T07:59:27;41.88;;;28.83;;
46889;SDS011;32625;51.080;16.970;2024-02-26T08:01:55;43.30;;;28.67;;
46889;SDS011;32625;51.080;16.970;2024-02-26T08:04:24;41.13;;;27.70;;
46889;SDS011;32625;51.080;16.970;2024-02-26T08:06:53;41.53;;;25.90;;
46889;SDS011;32625;51.080;16.970;2024-02-26T08:09:20;40.75;;;26.55;;
46889;SDS011;32625;51.080;16.970;2024-02-26T08:11:48;37.08;;;26.92;;
46889;SDS011;32625;51.080;16.970;2024-02-26T08:14:15;43.13;;;28.27;;
46889;SDS011;32625;51.080;16.970;2024-02-26T08:16:41;37.40;;;26.25;;
46889;SDS011;32625;51.080;16.970;2024-02-26T08:19:09;37.85;;;26.35;;
46889;SDS011;32625;51.080;16.970;2024-02-26T08:21:38;42.25;;;26.33;;
46889;SDS011;32625;51.080;16.970;2024-02-26T08:24:05;41.35;;;26.83;;
46889;SDS011;32625;51.080;16.970;2024-02-26T08:26:32;36.67;;;25.95;;
46889;SDS011;32625;51.080;16.970;2024-02-26T08:28:59;39.60;;;25.92;;
46889;SDS011;32625;51.080;16.970;2024-02-26T08:31:26;32.65;;;25.30;;
46889;SDS011;32625;51.080;16.970;2024-02-26T08:33:54;36.88;;;25.50;;
46889;SDS011;32625;51.080;16.970;2024-02-26T08:36:21;32.50;;;24.35;;
46889;SDS011;32625;51.080;16.970;2024-02-26T08:38:48;34.58;;;24.42;;
46889;SDS011;32625;51.080;16.970;2024-02-26T08:41:15;35.50;;;23.73;;
46889;SDS011;32625;51.080;16.970;2024-02-26T08:43:42;33.22;;;22.13;;
46889;SDS011;32625;51.080;16.970;2024-02-26T08:46:09;28.98;;;21.65;;
46889;SDS011;32625;51.080;16.970;2024-02-26T08:48:39;29.35;;;21.20;;
46889;SDS011;32625;51.080;16.970;2024-02-26T08:51:07;27.92;;;20.48;;
46889;SDS011;32625;51.080;16.970;2024-02-26T08:53:35;27.15;;;19.33;;
46889;SDS011;32625;51.080;16.970;2024-02-26T08:56:09;26.90;;;18.95;;
46889;SDS011;32625;51.080;16.970;2024-02-26T08:58:44;26.40;;;17.90;;
46889;SDS011;32625;51.080;16.970;2024-02-26T09:01:15;22.55;;;18.02;;
46889;SDS011;32625;51.080;16.970;2024-02-26T09:03:42;26.45;;;17.65;;
46889;SDS011;32625;51.080;16.970;2024-02-26T09:06:09;23.13;;;16.23;;
46889;SDS011;32625;51.080;16.970;2024-02-26T09:08:38;23.30;;;16.15;;
46889;SDS011;32625;51.080;16.970;2024-02-26T09:11:05;18.35;;;14.50;;
46889;SDS011;32625;51.080;16.970;2024-02-26T09:13:32;20.05;;;14.75;;
46889;SDS011;32625;51.080;16.970;2024-02-26T09:15:59;20.10;;;13.48;;
46889;SDS011;32625;51.080;16.970;2024-02-26T09:18:27;19.27;;;12.52;;
46889;SDS011;32625;51.080;16.970;2024-02-26T09:20:55;16.80;;;12.75;;
46889;SDS011;32625;51.080;16.970;2024-02-26T09:23:22;16.73;;;11.68;;
46889;SDS011;32625;51.080;16.970;2024-02-26T09:25:49;17.63;;;11.18;;
46889;SDS011;32625;51.080;16.970;2024-02-26T09:28:16;16.45;;;11.05;;
46889;SDS011;32625;51.080;16.970;2024-02-26T09:30:45;14.73;;;10.30;;
46889;SDS011;32625;51.080;16.970;2024-02-26T09:33:13;16.08;;;11.48;;
46889;SDS011;32625;51.080;16.970;2024-02-26T09:35:41;14.02;;;10.00;;
46889;SDS011;32625;51.080;16.970;2024-02-26T09:38:08;16.00;;;11.23;;
46889;SDS011;32625;51.080;16.970;2024-02-26T09:40:35;14.35;;;10.90;;
46889;SDS011;32625;51.080;16.970;2024-02-26T09:43:04;18.85;;;10.80;;
46889;SDS011;32625;51.080;16.970;2024-02-26T09:45:32;20.55;;;11.35;;
46889;SDS011;32625;51.080;16.970;2024-02-26T09:48:01;14.77;;;10.50;;
46889;SDS011;32625;51.080;16.970;2024-02-26T09:50:31;18.30;;;11.55;;
46889;SDS011;32625;51.080;16.970;2024-02-26T09:52:58;16.35;;;10.40;;
46889;SDS011;32625;51.080;16.970;2024-02-26T09:55:29;14.50;;;9.88;;
46889;SDS011;32625;51.080;16.970;2024-02-26T09:57:56;14.25;;;9.02;;
46889;SDS011;32625;51.080;16.970;2024-02-26T10:00:25;13.77;;;9.27;;
46889;SDS011;32625;51.080;16.970;2024-02-26T10:03:00;13.70;;;8.65;;
46889;SDS011;32625;51.080;16.970;2024-02-26T10:05:31;15.07;;;8.90;;
46889;SDS011;32625;51.080;16.970;2024-02-26T10:08:00;16.85;;;9.05;;
46889;SDS011;32625;51.080;16.970;2024-02-26T10:10:28;12.20;;;8.13;;
46889;SDS011;32625;51.080;16.970;2024-02-26T10:12:55;12.43;;;7.78;;
46889;SDS011;32625;51.080;16.970;2024-02-26T10:15:23;13.98;;;8.60;;
46889;SDS011;32625;51.080;16.970;2024-02-26T10:17:50;11.57;;;7.82;;
46889;SDS011;32625;51.080;16.970;2024-02-26T10:20:17;11.25;;;7.82;;
46889;SDS011;32625;51.080;16.970;2024-02-26T10:22:45;18.63;;;7.25;;
46889;SDS011;32625;51.080;16.970;2024-02-26T10:25:13;14.13;;;7.88;;
46889;SDS011;32625;51.080;16.970;2024-02-26T10:27:41;11.20;;;6.85;;
46889;SDS011;32625;51.080;16.970;2024-02-26T10:30:15;10.65;;;7.25;;
46889;SDS011;32625;51.080;16.970;2024-02-26T10:32:48;11.13;;;7.20;;
46889;SDS011;32625;51.080;16.970;2024-02-26T10:35:17;13.93;;;7.15;;
46889;SDS011;32625;51.080;16.970;2024-02-26T10:37:46;11.60;;;6.97;;
46889;SDS011;32625;51.080;16.970;2024-02-26T10:40:15;13.23;;;6.85;;
46889;SDS011;32625;51.080;16.970;2024-02-26T10:42:42;15.07;;;7.22;;
46889;SDS011;32625;51.080;16.970;2024-02-26T10:45:11;10.20;;;7.22;;
46889;SDS011;32625;51.080;16.970;2024-02-26T10:47:39;12.27;;;8.25;;
46889;SDS011;32625;51.080;16.970;2024-02-26T10:50:09;10.68;;;7.25;;
46889;SDS011;32625;51.080;16.970;2024-02-26T10:52:36;9.73;;;7.43;;
46889;SDS011;32625;51.080;16.970;2024-02-26T10:55:04;20.13;;;8.50;;
46889;SDS011;32625;51.080;16.970;2024-02-26T10:57:38;10.60;;;7.13;;
46889;SDS011;32625;51.080;16.970;2024-02-26T11:00:07;11.77;;;7.13;;
46889;SDS011;32625;51.080;16.970;2024-02-26T11:02:37;11.75;;;7.80;;
46889;SDS011;32625;51.080;16.970;2024-02-26T11:05:05;8.88;;;7.28;;
46889;SDS011;32625;51.080;16.970;2024-02-26T11:07:36;11.90;;;7.88;;
46889;SDS011;32625;51.080;16.970;2024-02-26T11:10:05;11.20;;;7.05;;
46889;SDS011;32625;51.080;16.970;2024-02-26T11:12:32;10.25;;;7.10;;
46889;SDS011;32625;51.080;16.970;2024-02-26T11:15:03;11.15;;;7.05;;
46889;SDS011;32625;51.080;16.970;2024-02-26T11:17:31;10.35;;;6.68;;
46889;SDS011;32625;51.080;16.970;2024-02-26T11:19:59;9.57;;;5.63;;
46889;SDS011;32625;51.080;16.970;2024-02-26T11:22:29;11.40;;;5.82;;
46889;SDS011;32625;51.080;16.970;2024-02-26T11:24:56;12.05;;;6.28;;
46889;SDS011;32625;51.080;16.970;2024-02-26T11:27:26;7.72;;;6.18;;
46889;SDS011;32625;51.080;16.970;2024-02-26T11:30:05;9.20;;;5.82;;
46889;SDS011;32625;51.080;16.970;2024-02-26T11:32:37;8.15;;;5.65;;
46889;SDS011;32625;51.080;16.970;2024-02-26T11:35:05;10.68;;;6.10;;
46889;SDS011;32625;51.080;16.970;2024-02-26T11:37:34;8.82;;;6.20;;
46889;SDS011;32625;51.080;16.970;2024-02-26T11:40:15;13.95;;;5.78;;
46889;SDS011;32625;51.080;16.970;2024-02-26T11:42:44;7.85;;;5.10;;
46889;SDS011;32625;51.080;16.970;2024-02-26T11:48:04;5.63;;;4.47;;
46889;SDS011;32625;51.080;16.970;2024-02-26T11:50:38;9.07;;;4.22;;
46889;SDS011;32625;51.080;16.970;2024-02-26T11:58:43;5.55;;;3.88;;
46889;SDS011;32625;51.080;16.970;2024-02-26T12:04:07;5.57;;;3.97;;
46889;SDS011;32625;51.080;16.970;2024-02-26T12:06:42;5.30;;;3.63;;
46889;SDS011;32625;51.080;16.970;2024-02-26T12:09:12;6.15;;;4.13;;
46889;SDS011;32625;51.080;16.970;2024-02-26T12:11:42;5.60;;;3.45;;
46889;SDS011;32625;51.080;16.970;2024-02-26T12:14:09;5.22;;;3.58;;
46889;SDS011;32625;51.080;16.970;2024-02-26T12:16:40;6.15;;;4.10;;
46889;SDS011;32625;51.080;16.970;2024-02-26T12:19:11;4.68;;;3.33;;
46889;SDS011;32625;51.080;16.970;2024-02-26T12:21:39;7.13;;;3.65;;
46889;SDS011;32625;51.080;16.970;2024-02-26T12:24:06;7.38;;;3.60;;
46889;SDS011;32625;51.080;16.970;2024-02-26T12:26:40;5.05;;;3.47;;
46889;SDS011;32625;51.080;16.970;2024-02-26T12:29:08;8.60;;;3.50;;
46889;SDS011;32625;51.080;16.970;2024-02-26T12:31:35;4.90;;;3.20;;
46889;SDS011;32625;51.080;16.970;2024-02-26T12:34:04;5.72;;;3.58;;
46889;SDS011;32625;51.080;16.970;2024-02-26T12:36:31;5.43;;;3.90;;
46889;SDS011;32625;51.080;16.970;2024-02-26T12:39:03;7.07;;;3.30;;
46889;SDS011;32625;51.080;16.970;2024-02-26T12:41:33;7.78;;;4.05;;
46889;SDS011;32625;51.080;16.970;2024-02-26T12:44:00;4.65;;;3.60;;
46889;SDS011;32625;51.080;16.970;2024-02-26T12:46:27;4.90;;;3.58;;
46889;SDS011;32625;51.080;16.970;2024-02-26T12:48:55;6.50;;;3.50;;
46889;SDS011;32625;51.080;16.970;2024-02-26T12:51:26;6.53;;;4.00;;
46889;SDS011;32625;51.080;16.970;2024-02-26T12:53:54;5.47;;;3.92;;
46889;SDS011;32625;51.080;16.970;2024-02-26T12:56:22;6.47;;;3.78;;
46889;SDS011;32625;51.080;16.970;2024-02-26T12:58:50;6.90;;;3.80;;
46889;SDS011;32625;51.080;16.970;2024-02-26T13:01:19;5.25;;;3.60;;
46889;SDS011;32625;51.080;16.970;2024-02-26T13:03:50;4.32;;;3.65;;
46889;SDS011;32625;51.080;16.970;2024-02-26T13:06:19;6.50;;;4.35;;
46889;SDS011;32625;51.080;16.970;2024-02-26T13:08:48;7.85;;;4.32;;
46889;SDS011;32625;51.080;16.970;2024-02-26T13:11:16;6.88;;;4.03;;
46889;SDS011;32625;51.080;16.970;2024-02-26T13:13:47;7.13;;;4.00;;
46889;SDS011;32625;51.080;16.970;2024-02-26T13:16:15;7.30;;;3.38;;
46889;SDS011;32625;51.080;16.970;2024-02-26T13:18:42;6.65;;;4.10;;
46889;SDS011;32625;51.080;16.970;2024-02-26T13:21:11;6.88;;;4.38;;
46889;SDS011;32625;51.080;16.970;2024-02-26T13:23:40;6.55;;;4.18;;
46889;SDS011;32625;51.080;16.970;2024-02-26T13:26:08;7.03;;;4.30;;
46889;SDS011;32625;51.080;16.970;2024-02-26T13:28:38;6.22;;;3.83;;
46889;SDS011;32625;51.080;16.970;2024-02-26T13:31:05;8.07;;;3.35;;
46889;SDS011;32625;51.080;16.970;2024-02-26T13:33:34;5.38;;;3.50;;
46889;SDS011;32625;51.080;16.970;2024-02-26T13:36:02;6.22;;;4.07;;
46889;SDS011;32625;51.080;16.970;2024-02-26T13:38:30;5.97;;;3.72;;
46889;SDS011;32625;51.080;16.970;2024-02-26T13:40:57;5.53;;;3.97;;
46889;SDS011;32625;51.080;16.970;2024-02-26T13:43:24;6.18;;;4.47;;
46889;SDS011;32625;51.080;16.970;2024-02-26T13:45:51;4.78;;;3.95;;
46889;SDS011;32625;51.080;16.970;2024-02-26T13:48:18;5.70;;;4.43;;
46889;SDS011;32625;51.080;16.970;2024-02-26T13:50:46;7.03;;;3.95;;
46889;SDS011;32625;51.080;16.970;2024-02-26T13:53:13;5.30;;;3.78;;
46889;SDS011;32625;51.080;16.970;2024-02-26T13:55:41;7.60;;;3.90;;
46889;SDS011;32625;51.080;16.970;2024-02-26T13:58:11;6.97;;;4.60;;
46889;SDS011;32625;51.080;16.970;2024-02-26T14:00:40;5.60;;;4.20;;
46889;SDS011;32625;51.080;16.970;2024-02-26T14:03:09;6.28;;;3.80;;
46889;SDS011;32625;51.080;16.970;2024-02-26T14:05:36;7.47;;;3.90;;
46889;SDS011;32625;51.080;16.970;2024-02-26T14:08:03;7.85;;;5.40;;
46889;SDS011;32625;51.080;16.970;2024-02-26T14:10:32;6.78;;;4.72;;
46889;SDS011;32625;51.080;16.970;2024-02-26T14:12:59;10.68;;;5.03;;
46889;SDS011;32625;51.080;16.970;2024-02-26T14:15:27;12.30;;;4.72;;
46889;SDS011;32625;51.080;16.970;2024-02-26T14:17:55;13.23;;;4.97;;
46889;SDS011;32625;51.080;16.970;2024-02-26T14:20:23;9.55;;;5.10;;
46889;SDS011;32625;51.080;16.970;2024-02-26T14:22:51;7.70;;;5.10;;
46889;SDS011;32625;51.080;16.970;2024-02-26T14:25:21;9.57;;;5.47;;
46889;SDS011;32625;51.080;16.970;2024-02-26T14:27:50;7.55;;;4.90;;
46889;SDS011;32625;51.080;16.970;2024-02-26T14:30:18;6.57;;;5.05;;